createdAt,value
2023-06-08T00:00:10.001Z,100364.09
2023-06-08T00:02:41.859Z,100367.50
2023-06-08T00:05:13.974Z,100369.38
2023-06-08T00:07:42.288Z,100368.94
2023-06-08T00:10:10.786Z,100370.69
2023-06-08T00:12:38.644Z,100363.97
2023-06-08T00:15:07.168Z,100358.63
2023-06-08T00:17:35.635Z,100362.16
2023-06-08T00:20:02.672Z,100357.19
2023-06-08T00:22:35.754Z,100360.09
2023-06-08T00:25:03.542Z,100355.22
2023-06-08T00:27:30.778Z,100353.59
2023-06-08T00:29:58.167Z,100358.56
2023-06-08T00:32:24.996Z,100350.75
2023-06-08T00:34:51.755Z,100350.34
2023-06-08T00:37:18.481Z,100356.03
2023-06-08T00:39:45.329Z,100350.97
2023-06-08T00:42:12.141Z,100345.66
2023-06-08T00:44:38.902Z,100347.59
2023-06-08T00:47:06.015Z,100348.66
2023-06-08T00:49:33.521Z,100349.47
2023-06-08T00:52:01.328Z,100349.03
2023-06-08T00:54:33.958Z,100343.38
2023-06-08T00:57:02.560Z,100338.03
2023-06-08T00:59:33.470Z,100344.69
2023-06-08T01:02:00.434Z,100349.47
2023-06-08T01:04:27.461Z,100348.03
2023-06-08T01:07:15.601Z,100343.50
2023-06-08T01:09:52.618Z,100342.97
2023-06-08T01:12:50.666Z,100344.47
2023-06-08T01:15:28.779Z,100338.53
2023-06-08T01:18:05.760Z,100354.91
2023-06-08T01:20:43.088Z,100347.22
2023-06-08T01:23:35.583Z,100353.69
2023-06-08T01:26:04.849Z,100350.16
2023-06-08T01:28:32.136Z,100351.50
2023-06-08T01:30:59.837Z,100354.69
2023-06-08T01:33:30.618Z,100360.28
2023-06-08T01:36:18.217Z,100350.88
2023-06-08T01:39:07.488Z,100349.94
2023-06-08T01:41:38.688Z,100345.69
2023-06-08T01:44:08.192Z,100354.59
2023-06-08T01:46:35.168Z,100358.16
2023-06-08T01:49:04.550Z,100352.03
2023-06-08T01:51:33.653Z,100345.78
2023-06-08T01:54:02.182Z,100350.44
2023-06-08T01:56:33.589Z,100349.00
2023-06-08T01:59:00.948Z,100346.09
2023-06-08T02:01:28.020Z,100351.31
2023-06-08T02:03:54.894Z,100346.03
2023-06-08T02:06:21.730Z,100345.50
2023-06-08T02:08:48.780Z,100336.63
2023-06-08T02:11:15.594Z,100339.91
2023-06-08T02:13:44.322Z,100338.41
2023-06-08T02:16:12.600Z,100337.78
2023-06-08T02:18:42.926Z,100339.75
2023-06-08T02:21:10.778Z,100337.97
2023-06-08T02:23:38.449Z,100342.44
2023-06-08T02:26:08.637Z,100338.00
2023-06-08T02:28:36.056Z,100338.81
2023-06-08T02:31:06.450Z,100341.06
2023-06-08T02:33:33.364Z,100344.47
2023-06-08T02:36:01.233Z,100348.31
2023-06-08T02:38:29.124Z,100349.59
2023-06-08T02:40:56.013Z,100353.28
2023-06-08T02:43:22.831Z,100348.63
2023-06-08T02:45:50.899Z,100350.31
2023-06-08T02:48:19.976Z,100345.66
2023-06-08T02:50:46.690Z,100345.22
2023-06-08T02:53:13.572Z,100341.50
2023-06-08T02:55:40.357Z,100338.97
2023-06-08T02:58:15.216Z,100336.19
2023-06-08T03:00:41.993Z,100334.50
2023-06-08T03:03:30.705Z,100340.22
2023-06-08T03:06:02.074Z,100340.69
2023-06-08T03:08:37.728Z,100339.75
2023-06-08T03:11:06.579Z,100340.25
2023-06-08T03:13:34.306Z,100344.09
2023-06-08T03:16:01.141Z,100338.59
2023-06-08T03:18:29.321Z,100350.94
2023-06-08T03:20:58.294Z,100340.78
2023-06-08T03:23:25.515Z,100335.97
2023-06-08T03:25:54.179Z,100337.97
2023-06-08T03:28:21.171Z,100334.25
2023-06-08T03:30:48.825Z,100339.41
2023-06-08T03:33:20.465Z,100340.25
2023-06-08T03:35:54.318Z,100338.59
2023-06-08T03:38:24.576Z,100340.75
2023-06-08T03:40:53.897Z,100344.47
2023-06-08T03:43:22.014Z,100339.50
2023-06-08T03:45:49.761Z,100346.88
2023-06-08T03:48:16.738Z,100347.38
2023-06-08T03:50:46.423Z,100347.50
2023-06-08T03:53:14.506Z,100341.66
2023-06-08T03:55:41.442Z,100347.13
2023-06-08T03:58:09.008Z,100350.75
2023-06-08T04:00:35.953Z,100353.28
2023-06-08T04:03:03.265Z,100353.41
2023-06-08T04:05:30.309Z,100355.19
2023-06-08T04:07:57.075Z,100357.13
2023-06-08T04:10:24.528Z,100356.63
2023-06-08T04:12:52.337Z,100358.72
2023-06-08T04:15:19.283Z,100364.69
2023-06-08T04:17:48.217Z,100358.38
2023-06-08T04:20:18.686Z,100347.31
2023-06-08T04:22:46.390Z,100353.41
2023-06-08T04:25:14.671Z,100355.69
2023-06-08T04:27:42.816Z,100351.34
2023-06-08T04:30:10.243Z,100357.13
2023-06-08T04:32:37.958Z,100350.94
2023-06-08T04:35:06.359Z,100354.03
2023-06-08T04:37:35.880Z,100348.13
2023-06-08T04:40:04.753Z,100354.66
2023-06-08T04:42:34.434Z,100354.69
2023-06-08T04:45:05.093Z,100358.09
2023-06-08T04:47:34.371Z,100350.72
2023-06-08T04:50:02.133Z,100348.50
2023-06-08T04:52:38.446Z,100350.13
2023-06-08T04:55:06.092Z,100352.34
2023-06-08T04:57:33.830Z,100355.84
2023-06-08T05:00:00.604Z,100355.34
2023-06-08T05:02:27.491Z,100354.91
2023-06-08T05:04:54.614Z,100355.66
2023-06-08T05:07:21.439Z,100358.53
2023-06-08T05:09:48.496Z,100365.03
2023-06-08T05:12:15.518Z,100361.50
2023-06-08T05:14:42.709Z,100373.22
2023-06-08T05:17:09.866Z,100374.66
2023-06-08T05:19:36.739Z,100365.25
2023-06-08T05:22:03.609Z,100368.78
2023-06-08T05:24:30.516Z,100366.88
2023-06-08T05:26:57.297Z,100367.88
2023-06-08T05:29:24.046Z,100362.50
2023-06-08T05:31:50.996Z,100353.69
2023-06-08T05:34:18.290Z,100366.56
2023-06-08T05:36:45.056Z,100367.56
2023-06-08T05:39:11.874Z,100358.03
2023-06-08T05:41:38.616Z,100366.28
2023-06-08T05:44:05.621Z,100355.09
2023-06-08T05:46:32.420Z,100359.00
2023-06-08T05:48:59.126Z,100364.75
2023-06-08T05:51:25.934Z,100366.72
2023-06-08T05:53:52.700Z,100363.31
2023-06-08T05:56:19.835Z,100369.31
2023-06-08T05:58:50.046Z,100369.94
2023-06-08T06:01:20.268Z,100369.28
2023-06-08T06:03:48.098Z,100371.72
2023-06-08T06:06:15.057Z,100358.84
2023-06-08T06:08:44.391Z,100367.06
2023-06-08T06:11:11.663Z,100372.88
2023-06-08T06:13:38.533Z,100365.13
2023-06-08T06:16:05.524Z,100369.84
2023-06-08T06:18:33.824Z,100365.66
2023-06-08T06:21:00.599Z,100366.78
2023-06-08T06:23:27.331Z,100367.69
2023-06-08T06:25:54.433Z,100365.81
2023-06-08T06:28:21.234Z,100369.31
2023-06-08T06:30:48.027Z,100368.50
2023-06-08T06:33:14.897Z,100375.25
2023-06-08T06:35:43.285Z,100374.59
2023-06-08T06:38:10.021Z,100380.34
2023-06-08T06:40:36.755Z,100387.78
2023-06-08T06:43:03.510Z,100388.25
2023-06-08T06:45:33.658Z,100388.28
2023-06-08T06:48:01.541Z,100395.25
2023-06-08T06:50:28.408Z,100400.06
2023-06-08T06:52:55.757Z,100403.59
2023-06-08T06:55:22.570Z,100411.22
2023-06-08T06:57:49.701Z,100409.50
2023-06-08T07:00:17.116Z,100411.84
2023-06-08T07:02:43.851Z,100407.16
2023-06-08T07:05:12.174Z,100405.06
2023-06-08T07:07:39.242Z,100399.13
2023-06-08T07:10:07.203Z,100415.63
2023-06-08T07:12:34.209Z,100410.13
2023-06-08T07:15:00.957Z,100414.28
2023-06-08T07:17:29.299Z,100419.94
2023-06-08T07:19:58.996Z,100413.00
2023-06-08T07:22:43.516Z,100414.19
2023-06-08T07:25:57.696Z,100421.88
2023-06-08T07:28:04.099Z,100420.50
2023-06-08T07:30:32.974Z,100425.00
2023-06-08T07:33:00.869Z,100431.00
2023-06-08T07:35:28.028Z,100426.06
2023-06-08T07:37:55.920Z,100427.22
2023-06-08T07:40:23.163Z,100426.06
2023-06-08T07:42:49.910Z,100428.59
2023-06-08T07:45:16.698Z,100426.38
2023-06-08T07:47:43.488Z,100425.84
2023-06-08T07:50:12.076Z,100424.47
2023-06-08T07:52:39.453Z,100418.16
2023-06-08T07:55:06.957Z,100417.38
2023-06-08T07:57:33.700Z,100405.91
2023-06-08T08:00:01.023Z,100405.31
2023-06-08T08:02:29.474Z,100400.91
2023-06-08T08:04:57.002Z,100402.91
2023-06-08T08:07:23.715Z,100398.84
2023-06-08T08:09:50.527Z,100398.13
2023-06-08T08:12:19.276Z,100396.59
2023-06-08T08:14:46.207Z,100395.94
2023-06-08T08:17:13.084Z,100388.25
2023-06-08T08:19:41.741Z,100386.69
2023-06-08T08:22:08.692Z,100383.66
2023-06-08T08:24:35.879Z,100381.19
2023-06-08T08:27:02.990Z,100385.41
2023-06-08T08:29:30.079Z,100379.75
2023-06-08T08:31:57.506Z,100370.72
2023-06-08T08:34:24.937Z,100379.19
2023-06-08T08:36:52.402Z,100378.44
2023-06-08T08:39:19.300Z,100387.28
2023-06-08T08:41:52.523Z,100380.78
2023-06-08T08:44:20.954Z,100388.28
2023-06-08T08:46:50.693Z,100378.69
2023-06-08T08:49:18.363Z,100381.56
2023-06-08T08:51:51.180Z,100379.41
2023-06-08T08:54:19.076Z,100380.22
2023-06-08T08:56:47.054Z,100379.41
2023-06-08T08:59:14.083Z,100371.94
2023-06-08T09:01:41.049Z,100370.31
2023-06-08T09:04:08.436Z,100373.31
2023-06-08T09:06:35.729Z,100366.66
2023-06-08T09:09:02.684Z,100366.19
2023-06-08T09:11:29.616Z,100365.84
2023-06-08T09:14:10.421Z,100359.88
2023-06-08T09:16:44.587Z,100351.03
2023-06-08T09:19:12.860Z,100350.94
2023-06-08T09:21:41.809Z,100355.88
2023-06-08T09:24:19.405Z,100358.59
2023-06-08T09:26:56.993Z,100349.88
2023-06-08T09:29:43.107Z,100349.00
2023-06-08T09:32:14.235Z,100334.97
2023-06-08T09:34:52.244Z,100332.91
2023-06-08T09:37:20.271Z,100331.66
2023-06-08T09:39:48.434Z,100332.44
2023-06-08T09:42:15.427Z,100334.50
2023-06-08T09:44:42.241Z,100328.44
2023-06-08T09:47:27.126Z,100327.81
2023-06-08T09:49:56.267Z,100329.22
2023-06-08T09:52:24.747Z,100323.94
2023-06-08T09:54:52.882Z,100327.84
2023-06-08T09:57:22.957Z,100326.31
2023-06-08T10:00:15.576Z,100318.16
2023-06-08T10:02:54.532Z,100321.13
2023-06-08T10:05:23.703Z,100323.00
2023-06-08T10:07:55.791Z,100318.72
2023-06-08T10:10:25.736Z,100312.09
2023-06-08T10:12:53.122Z,100310.41
2023-06-08T10:15:22.335Z,100315.25
2023-06-08T10:17:51.064Z,100312.81
2023-06-08T10:20:18.537Z,100304.72
2023-06-08T10:22:46.758Z,100304.72
2023-06-08T10:25:16.829Z,100302.63
2023-06-08T10:27:51.650Z,100299.94
2023-06-08T10:30:35.060Z,100299.53
2023-06-08T10:33:10.210Z,100297.53
2023-06-08T10:35:38.653Z,100288.25
2023-06-08T10:38:13.020Z,100289.00
2023-06-08T10:40:51.798Z,100280.22
2023-06-08T10:43:48.195Z,100280.13
2023-06-08T10:46:10.542Z,100277.44
2023-06-08T10:48:38.393Z,100271.41
2023-06-08T10:51:11.510Z,100265.44
2023-06-08T10:53:58.649Z,100266.59
2023-06-08T10:56:27.770Z,100251.31
2023-06-08T10:58:54.876Z,100250.25
2023-06-08T11:01:22.157Z,100252.06
2023-06-08T11:03:49.430Z,100245.31
2023-06-08T11:06:17.038Z,100246.66
2023-06-08T11:08:44.255Z,100241.50
2023-06-08T11:11:12.120Z,100234.47
2023-06-08T11:13:38.931Z,100239.91
2023-06-08T11:16:05.849Z,100241.84
2023-06-08T11:18:34.218Z,100239.25
2023-06-08T11:21:01.551Z,100235.97
2023-06-08T11:23:32.922Z,100237.28
2023-06-08T11:26:01.010Z,100224.94
2023-06-08T11:28:27.861Z,100227.00
2023-06-08T11:30:55.019Z,100224.16
2023-06-08T11:33:22.682Z,100226.34
2023-06-08T11:35:53.692Z,100228.06
2023-06-08T11:38:24.988Z,100230.63
2023-06-08T11:40:52.233Z,100225.19
2023-06-08T11:43:22.569Z,100219.94
2023-06-08T11:45:49.350Z,100219.94
2023-06-08T11:48:17.548Z,100213.09
2023-06-08T11:50:49.310Z,100226.09
2023-06-08T11:53:20.991Z,100217.66
2023-06-08T11:55:51.479Z,100221.56
2023-06-08T11:58:23.595Z,100214.44
2023-06-08T12:00:50.575Z,100205.81
2023-06-08T12:03:17.412Z,100195.88
2023-06-08T12:05:45.643Z,100205.72
2023-06-08T12:08:15.862Z,100207.56
2023-06-08T12:10:47.820Z,100212.06
2023-06-08T12:13:24.203Z,100208.84
2023-06-08T12:15:53.848Z,100204.75
2023-06-08T12:18:23.061Z,100228.31
2023-06-08T12:20:54.014Z,100229.75
2023-06-08T12:23:23.949Z,100231.81
2023-06-08T12:25:52.933Z,100234.72
2023-06-08T12:28:23.248Z,100227.72
2023-06-08T12:30:50.482Z,100223.34
2023-06-08T12:33:22.033Z,100217.50
2023-06-08T12:35:52.364Z,100216.00
2023-06-08T12:38:19.556Z,100217.16
2023-06-08T12:40:48.823Z,100229.06
2023-06-08T12:43:17.798Z,100229.28
2023-06-08T12:45:45.437Z,100233.97
2023-06-08T12:48:12.586Z,100235.66
2023-06-08T12:50:39.511Z,100232.47
2023-06-08T12:53:07.085Z,100238.41
2023-06-08T12:55:34.131Z,100236.78
2023-06-08T12:58:00.876Z,100231.28
2023-06-08T13:00:27.818Z,100218.41
2023-06-08T13:02:54.836Z,100220.97
2023-06-08T13:05:22.793Z,100221.72
2023-06-08T13:07:50.560Z,100216.38
2023-06-08T13:10:17.548Z,100217.97
2023-06-08T13:12:44.764Z,100217.94
2023-06-08T13:15:11.749Z,100219.00
2023-06-08T13:17:38.850Z,100223.25
2023-06-08T13:20:06.946Z,100221.22
2023-06-08T13:22:34.057Z,100213.47
2023-06-08T13:25:01.013Z,100224.97
2023-06-08T13:27:27.812Z,100215.59
2023-06-08T13:29:54.810Z,100211.06
2023-06-08T13:32:21.862Z,100209.47
2023-06-08T13:34:50.419Z,100200.84
2023-06-08T13:37:17.152Z,100197.47
2023-06-08T13:39:44.333Z,100188.31
2023-06-08T13:42:11.232Z,100193.03
2023-06-08T13:44:41.620Z,100186.78
2023-06-08T13:47:08.934Z,100181.34
2023-06-08T13:49:36.053Z,100177.50
2023-06-08T13:52:03.004Z,100178.41
2023-06-08T13:54:29.734Z,100169.69
2023-06-08T13:56:56.555Z,100162.47
2023-06-08T13:59:23.382Z,100165.09
2023-06-08T14:01:50.399Z,100158.41
2023-06-08T14:04:18.164Z,100161.75
2023-06-08T14:06:45.424Z,100147.09
2023-06-08T14:09:12.873Z,100147.91
2023-06-08T14:11:40.776Z,100141.75
2023-06-08T14:14:08.077Z,100135.97
2023-06-08T14:16:34.917Z,100147.84
2023-06-08T14:19:01.840Z,100143.94
2023-06-08T14:21:28.777Z,100139.47
2023-06-08T14:23:57.407Z,100145.88
2023-06-08T14:26:24.620Z,100150.34
2023-06-08T14:28:51.567Z,100151.75
2023-06-08T14:31:18.443Z,100153.34
2023-06-08T14:33:45.456Z,100161.31
2023-06-08T14:36:12.285Z,100157.75
2023-06-08T14:38:39.041Z,100165.25
2023-06-08T14:41:05.785Z,100170.34
2023-06-08T14:43:32.566Z,100166.69
2023-06-08T14:45:59.454Z,100163.06
2023-06-08T14:48:26.293Z,100171.19
2023-06-08T14:50:55.354Z,100176.41
2023-06-08T14:53:24.415Z,100172.13
2023-06-08T14:55:51.325Z,100174.22
2023-06-08T14:58:18.198Z,100171.19
2023-06-08T15:00:44.916Z,100176.94
2023-06-08T15:03:11.921Z,100173.00
2023-06-08T15:05:40.563Z,100176.22
2023-06-08T15:08:07.625Z,100166.28
2023-06-08T15:10:34.492Z,100169.88
2023-06-08T15:13:01.525Z,100169.53
2023-06-08T15:15:28.432Z,100166.91
2023-06-08T15:17:55.437Z,100176.28
2023-06-08T15:20:22.245Z,100160.25
2023-06-08T15:22:49.188Z,100166.47
2023-06-08T15:25:16.598Z,100162.56
2023-06-08T15:27:43.567Z,100177.88
2023-06-08T15:30:11.423Z,100179.97
2023-06-08T15:32:38.222Z,100182.22
2023-06-08T15:35:07.132Z,100182.38
2023-06-08T15:37:35.366Z,100191.66
2023-06-08T15:40:03.654Z,100192.88
2023-06-08T15:42:33.557Z,100189.38
2023-06-08T15:45:00.356Z,100178.84
2023-06-08T15:47:27.234Z,100161.00
2023-06-08T15:49:53.973Z,100161.88
2023-06-08T15:52:20.776Z,100161.91
2023-06-08T15:54:47.623Z,100165.31
2023-06-08T15:57:17.464Z,100149.75
2023-06-08T15:59:47.555Z,100150.47
2023-06-08T16:02:15.474Z,100147.41
2023-06-08T16:04:42.491Z,100140.53
2023-06-08T16:07:09.488Z,100149.00
2023-06-08T16:09:36.402Z,100142.84
2023-06-08T16:12:03.509Z,100151.50
2023-06-08T16:14:30.424Z,100146.78
2023-06-08T16:16:57.405Z,100143.75
2023-06-08T16:19:24.351Z,100147.16
2023-06-08T16:21:51.687Z,100142.00
2023-06-08T16:24:25.808Z,100139.50
2023-06-08T16:26:53.988Z,100132.19
2023-06-08T16:29:21.766Z,100141.63
2023-06-08T16:31:52.489Z,100149.13
2023-06-08T16:34:20.164Z,100144.16
2023-06-08T16:36:47.903Z,100148.72
2023-06-08T16:39:16.299Z,100145.84
2023-06-08T16:41:48.180Z,100135.25
2023-06-08T16:44:15.328Z,100147.31
2023-06-08T16:46:42.781Z,100153.78
2023-06-08T16:49:10.640Z,100144.81
2023-06-08T16:51:37.765Z,100144.03
2023-06-08T16:54:08.205Z,100142.72
2023-06-08T16:56:35.127Z,100150.94
2023-06-08T16:59:02.596Z,100147.44
2023-06-08T17:01:29.497Z,100149.78
2023-06-08T17:03:57.869Z,100154.72
2023-06-08T17:06:24.884Z,100160.22
2023-06-08T17:08:51.734Z,100172.44
2023-06-08T17:11:18.495Z,100180.63
2023-06-08T17:13:45.332Z,100169.84
2023-06-08T17:16:12.269Z,100164.88
2023-06-08T17:18:39.321Z,100171.03
2023-06-08T17:21:08.501Z,100169.97
2023-06-08T17:23:35.722Z,100181.72
2023-06-08T17:26:02.649Z,100177.28
2023-06-08T17:28:29.393Z,100183.13
2023-06-08T17:30:56.150Z,100170.41
2023-06-08T17:33:25.186Z,100178.50
2023-06-08T17:35:52.265Z,100179.28
2023-06-08T17:38:19.099Z,100178.38
2023-06-08T17:40:46.136Z,100176.56
2023-06-08T17:43:13.063Z,100179.50
2023-06-08T17:45:39.834Z,100187.66
2023-06-08T17:48:06.963Z,100203.22
2023-06-08T17:50:36.885Z,100197.22
2023-06-08T17:53:06.403Z,100196.75
2023-06-08T17:55:33.366Z,100201.91
2023-06-08T17:58:00.438Z,100192.28
2023-06-08T18:00:28.834Z,100187.50
2023-06-08T18:02:56.337Z,100183.38
2023-06-08T18:05:24.368Z,100175.59
2023-06-08T18:07:51.414Z,100177.19
2023-06-08T18:10:18.850Z,100166.63
2023-06-08T18:12:46.744Z,100160.34
2023-06-08T18:15:13.616Z,100164.69
2023-06-08T18:17:40.510Z,100166.44
2023-06-08T18:20:08.379Z,100166.75
2023-06-08T18:22:35.347Z,100164.19
2023-06-08T18:25:03.788Z,100173.13
2023-06-08T18:27:34.184Z,100178.38
2023-06-08T18:30:01.306Z,100189.84
2023-06-08T18:32:28.267Z,100188.13
2023-06-08T18:34:55.334Z,100195.91
2023-06-08T18:37:22.300Z,100196.47
2023-06-08T18:39:57.823Z,100191.63
2023-06-08T18:42:26.589Z,100187.47
2023-06-08T18:44:54.078Z,100192.38
2023-06-08T18:47:22.822Z,100196.56
2023-06-08T18:49:49.807Z,100196.59
2023-06-08T18:52:17.962Z,100192.25
2023-06-08T18:54:46.699Z,100206.31
2023-06-08T18:57:13.943Z,100204.38
2023-06-08T18:59:40.853Z,100201.28
2023-06-08T19:02:07.992Z,100200.66
2023-06-08T19:04:34.853Z,100204.72
2023-06-08T19:07:01.664Z,100209.13
2023-06-08T19:09:29.001Z,100210.41
2023-06-08T19:11:56.269Z,100206.47
2023-06-08T19:14:23.080Z,100207.00
2023-06-08T19:16:50.059Z,100206.25
2023-06-08T19:19:18.009Z,100203.84
2023-06-08T19:21:45.010Z,100201.44
2023-06-08T19:24:12.060Z,100186.00
2023-06-08T19:26:39.070Z,100197.31
2023-06-08T19:29:07.210Z,100203.03
2023-06-08T19:31:34.306Z,100199.97
2023-06-08T19:34:01.464Z,100200.22
2023-06-08T19:36:28.385Z,100207.34
2023-06-08T19:38:55.418Z,100201.03
2023-06-08T19:41:22.413Z,100204.66
2023-06-08T19:43:52.306Z,100202.44
2023-06-08T19:46:20.034Z,100215.78
2023-06-08T19:48:48.299Z,100213.56
2023-06-08T19:51:15.150Z,100215.34
2023-06-08T19:53:42.122Z,100212.50
2023-06-08T19:56:09.368Z,100205.88
2023-06-08T19:58:36.108Z,100207.66
2023-06-08T20:01:02.875Z,100208.75
2023-06-08T20:03:29.745Z,100206.59
2023-06-08T20:05:56.600Z,100203.13
2023-06-08T20:08:23.363Z,100206.16
2023-06-08T20:10:50.953Z,100207.28
2023-06-08T20:13:17.725Z,100207.72
2023-06-08T20:15:44.566Z,100217.22
2023-06-08T20:18:11.471Z,100217.22
2023-06-08T20:20:38.239Z,100230.34
2023-06-08T20:23:05.607Z,100232.19
2023-06-08T20:25:32.392Z,100227.06
2023-06-08T20:27:59.170Z,100227.13
2023-06-08T20:30:27.187Z,100222.09
2023-06-08T20:32:54.128Z,100228.31
2023-06-08T20:35:21.120Z,100232.16
2023-06-08T20:37:47.973Z,100234.22
2023-06-08T20:40:15.142Z,100235.28
2023-06-08T20:42:42.275Z,100233.38
2023-06-08T20:45:09.674Z,100232.94
2023-06-08T20:47:36.605Z,100226.00
2023-06-08T20:50:04.735Z,100227.50
2023-06-08T20:52:32.614Z,100253.06
2023-06-08T20:54:59.502Z,100262.28
2023-06-08T20:57:26.394Z,100275.03
2023-06-08T20:59:53.260Z,100285.72
2023-06-08T21:02:20.010Z,100285.72
2023-06-08T21:04:46.887Z,100271.78
2023-06-08T21:07:13.595Z,100274.66
2023-06-08T21:09:40.381Z,100280.66
2023-06-08T21:12:08.086Z,100282.16
2023-06-08T21:14:34.828Z,100282.59
2023-06-08T21:17:06.139Z,100271.97
2023-06-08T21:19:32.980Z,100270.06
2023-06-08T21:22:00.370Z,100275.06
2023-06-08T21:24:28.151Z,100287.81
2023-06-08T21:26:59.657Z,100289.28
2023-06-08T21:29:26.478Z,100275.88
2023-06-08T21:31:53.327Z,100280.06
2023-06-08T21:34:20.578Z,100281.84
2023-06-08T21:36:47.683Z,100281.34
2023-06-08T21:39:14.481Z,100275.56
2023-06-08T21:41:41.324Z,100275.09
2023-06-08T21:44:08.097Z,100282.19
2023-06-08T21:46:35.079Z,100280.09
2023-06-08T21:49:01.941Z,100288.16
2023-06-08T21:51:28.811Z,100274.78
2023-06-08T21:53:55.630Z,100275.28
2023-06-08T21:56:22.409Z,100278.81
2023-06-08T21:58:50.313Z,100280.75
2023-06-08T22:01:17.432Z,100267.72
2023-06-08T22:03:44.507Z,100279.13
2023-06-08T22:06:11.540Z,100274.78
2023-06-08T22:08:38.880Z,100279.94
2023-06-08T22:11:05.688Z,100292.50
2023-06-08T22:13:33.875Z,100300.38
2023-06-08T22:16:02.330Z,100292.66
2023-06-08T22:18:29.910Z,100293.47
2023-06-08T22:21:00.854Z,100296.50
2023-06-08T22:23:28.622Z,100291.53
2023-06-08T22:25:55.700Z,100287.66
2023-06-08T22:28:22.535Z,100290.38
2023-06-08T22:30:49.694Z,100282.19
2023-06-08T22:33:17.474Z,100282.34
2023-06-08T22:35:45.679Z,100268.28
2023-06-08T22:38:13.817Z,100267.34
2023-06-08T22:43:07.814Z,100273.63
2023-06-08T22:45:34.652Z,100260.47
2023-06-08T22:48:01.467Z,100257.06
2023-06-08T22:50:29.359Z,100261.53
2023-06-08T22:52:57.247Z,100262.81
2023-06-08T22:55:24.089Z,100261.28
2023-06-08T22:57:50.898Z,100259.81
2023-06-08T23:00:18.380Z,100261.88
2023-06-08T23:02:45.552Z,100263.19
2023-06-08T23:05:12.873Z,100257.69
2023-06-08T23:07:42.024Z,100259.50
2023-06-08T23:10:09.114Z,100255.09
2023-06-08T23:12:36.094Z,100248.47
2023-06-08T23:15:06.801Z,100243.31
2023-06-08T23:17:41.106Z,100243.28
2023-06-08T23:20:10.504Z,100236.09
2023-06-08T23:22:37.667Z,100233.34
2023-06-08T23:25:05.964Z,100243.81
2023-06-08T23:27:34.015Z,100235.63
2023-06-08T23:30:01.242Z,100238.81
2023-06-08T23:32:32.028Z,100250.06
2023-06-08T23:34:58.989Z,100251.69
2023-06-08T23:37:26.519Z,100249.28
2023-06-08T23:39:53.445Z,100239.47
2023-06-08T23:42:25.067Z,100242.06
2023-06-08T23:44:56.963Z,100233.00
2023-06-08T23:47:24.455Z,100228.22
2023-06-08T23:49:51.375Z,100230.75
2023-06-08T23:52:20.219Z,100222.06
2023-06-08T23:54:48.732Z,100230.28
2023-06-08T23:57:16.024Z,100223.03
2023-06-08T23:59:42.807Z,100215.16
